Time;durP1;ratioP1;P1;durP2;ratioP2;P2;SDS_P1;SDS_P2;PMS_P1;PMS_P2;Temp;Humidity;BMP_temperature;BMP_pressure;BME280_temperature;BME280_humidity;BME280_pressure;Samples;Min_cycle;Max_cycle;Signal;HPM_P1;HPM_P2
2021/12/11 00:01:36;;;;;;;25.63;13.77;;;;;;;7.88;100.00;100152.81;5029541;28;20172;-77
2021/12/11 00:04:04;;;;;;;18.83;13.43;;;;;;;7.97;100.00;100166.44;5010649;28;20172;-76
2021/12/11 00:06:35;;;;;;;23.15;13.77;;;;;;;7.93;100.00;100164.34;5028674;28;20212;-76
2021/12/11 00:09:11;;;;;;;22.77;13.30;;;;;;;8.04;100.00;100166.25;5028618;28;20287;-75
2021/12/11 00:11:40;;;;;;;19.13;12.85;;;;;;;7.98;100.00;100146.94;5028152;28;20190;-75
2021/12/11 00:14:09;;;;;;;17.08;12.18;;;;;;;8.11;100.00;100172.81;5028863;28;20234;-76
2021/12/11 00:16:37;;;;;;;18.60;12.13;;;;;;;8.14;100.00;100168.00;5028251;28;20233;-74
2021/12/11 00:19:13;;;;;;;19.73;12.30;;;;;;;8.20;100.00;100176.22;5028070;28;20216;-76
2021/12/11 00:21:40;;;;;;;23.50;13.25;;;;;;;8.00;100.00;100135.19;5011695;28;20200;-74
2021/12/11 00:24:26;;;;;;;21.73;13.98;;;;;;;8.13;100.00;100178.06;5010738;28;20266;-76
2021/12/11 00:26:59;;;;;;;22.00;13.73;;;;;;;7.96;100.00;100161.19;5028946;28;20634;-76
2021/12/11 00:29:27;;;;;;;26.23;13.93;;;;;;;8.13;100.00;100201.94;5015196;28;20207;-76
2021/12/11 00:32:02;;;;;;;20.10;14.07;;;;;;;8.16;100.00;100209.88;5032327;28;20590;-76
2021/12/11 00:34:28;;;;;;;22.55;14.23;;;;;;;8.14;100.00;100218.16;5030716;28;20666;-76
2021/12/11 00:37:01;;;;;;;23.23;15.13;;;;;;;8.00;100.00;100193.88;5032106;28;20208;-76
2021/12/11 00:39:27;;;;;;;23.27;15.30;;;;;;;8.12;100.00;100222.19;5013176;28;20241;-76
2021/12/11 00:41:55;;;;;;;25.15;15.63;;;;;;;8.12;100.00;100229.84;5031738;28;20271;-75
2021/12/11 00:44:33;;;;;;;22.80;14.77;;;;;;;8.11;100.00;100231.50;5014337;28;20183;-76
2021/12/11 00:47:10;;;;;;;23.27;14.48;;;;;;;8.08;100.00;100243.97;5033681;28;20232;-75
2021/12/11 00:49:44;;;;;;;25.10;16.80;;;;;;;8.00;100.00;100238.16;5032234;28;20274;-75
2021/12/11 00:52:09;;;;;;;25.45;16.27;;;;;;;7.88;100.00;100229.34;5031791;28;20306;-76
2021/12/11 00:54:42;;;;;;;26.10;16.88;;;;;;;7.97;100.00;100258.28;5013922;28;20270;-76
2021/12/11 00:57:10;;;;;;;29.90;18.67;;;;;;;7.95;100.00;100261.47;5031464;28;20178;-75
2021/12/11 00:59:36;;;;;;;28.30;17.08;;;;;;;7.84;100.00;100248.56;5030886;28;20211;-75
2021/12/11 01:02:03;;;;;;;30.20;18.08;;;;;;;7.54;100.00;100207.38;5031879;28;20674;-75
2021/12/11 01:04:40;;;;;;;35.10;17.92;;;;;;;7.79;100.00;100259.09;5031438;28;20560;-76
2021/12/11 01:07:18;;;;;;;34.30;19.13;;;;;;;7.75;100.00;100259.53;5030475;28;20223;-75
2021/12/11 01:09:49;;;;;;;29.13;17.42;;;;;;;7.67;100.00;100238.44;5029388;28;20227;-75
2021/12/11 01:12:47;;;;;;;34.78;18.85;;;;;;;7.69;100.00;100249.66;5032135;28;20683;-75
2021/12/11 01:15:27;;;;;;;32.08;18.38;;;;;;;7.71;100.00;100247.25;5029022;28;20265;-75
2021/12/11 01:18:02;;;;;;;38.80;19.77;;;;;;;7.72;100.00;100242.28;5030147;28;20995;-75
2021/12/11 01:21:03;;;;;;;38.47;19.92;;;;;;;7.64;100.00;100221.19;5029199;28;20259;-75
2021/12/11 01:26:03;;;;;;;40.17;21.23;;;;;;;7.75;100.00;100249.34;5027601;28;20169;-75
2021/12/11 01:28:29;;;;;;;36.80;21.95;;;;;;;7.85;100.00;100257.13;5029021;28;20196;-75
2021/12/11 01:30:55;;;;;;;34.22;18.27;;;;;;;7.85;100.00;100260.59;5012657;28;20203;-75
2021/12/11 01:33:22;;;;;;;37.78;19.90;;;;;;;7.86;100.00;100266.56;5030672;28;20230;-76
2021/12/11 01:35:48;;;;;;;35.00;19.00;;;;;;;7.79;100.00;100257.44;5029613;28;20267;-76
2021/12/11 01:38:22;;;;;;;35.28;18.92;;;;;;;7.87;100.00;100260.72;5031421;28;20183;-76
2021/12/11 01:40:52;;;;;;;31.65;18.17;;;;;;;7.73;100.00;100239.00;5029734;28;20163;-75
2021/12/11 01:43:21;;;;;;;36.53;19.67;;;;;;;7.67;100.00;100235.88;5030485;28;20259;-75
2021/12/11 01:45:49;;;;;;;34.88;18.08;;;;;;;7.73;100.00;100256.88;5030924;28;20168;-75
2021/12/11 01:48:21;;;;;;;31.50;18.20;;;;;;;7.55;100.00;100220.31;5030000;28;20694;-75
2021/12/11 01:50:50;;;;;;;29.05;16.95;;;;;;;7.74;100.00;100260.31;5031221;28;20182;-76
2021/12/11 01:53:32;;;;;;;35.33;18.05;;;;;;;7.67;100.00;100253.72;5031050;28;20643;-75
2021/12/11 01:56:05;;;;;;;31.60;18.27;;;;;;;7.69;100.00;100274.25;5030960;28;20221;-77
2021/12/11 01:58:39;;;;;;;35.28;19.42;;;;;;;7.68;100.00;100269.91;5030917;28;20183;-75
2021/12/11 02:01:14;;;;;;;38.40;20.42;;;;;;;7.65;100.00;100278.16;5031044;28;20175;-76
2021/12/11 02:03:40;;;;;;;26.75;16.27;;;;;;;7.42;100.00;100249.59;5029440;28;20172;-75
2021/12/11 02:06:07;;;;;;;31.00;18.83;;;;;;;7.64;100.00;100272.19;5030507;28;20216;-75
2021/12/11 02:08:35;;;;;;;31.30;17.77;;;;;;;7.65;100.00;100257.78;5013279;28;20614;-76
2021/12/11 02:11:12;;;;;;;30.30;17.20;;;;;;;7.66;100.00;100264.66;5030438;28;20183;-75
2021/12/11 02:13:57;;;;;;;29.73;16.33;;;;;;;7.59;100.00;100250.44;5030520;28;20176;-75
2021/12/11 02:16:27;;;;;;;30.08;17.13;;;;;;;7.74;100.00;100255.22;5032825;28;20311;-77
2021/12/11 02:19:07;;;;;;;28.90;16.48;;;;;;;7.64;100.00;100235.59;5029722;28;20168;-76
2021/12/11 02:21:50;;;;;;;29.58;16.92;;;;;;;7.83;100.00;100258.63;5029960;28;20186;-76
2021/12/11 02:24:23;;;;;;;31.73;16.70;;;;;;;7.89;100.00;100266.88;5029633;28;20711;-75
2021/12/11 02:26:49;;;;;;;30.85;16.50;;;;;;;7.79;100.00;100246.34;5030501;28;20192;-77
2021/12/11 02:29:24;;;;;;;29.08;15.52;;;;;;;7.94;100.00;100255.44;5030642;28;20291;-76
2021/12/11 02:32:11;;;;;;;26.17;14.95;;;;;;;7.96;100.00;100251.38;5030227;28;20250;-76
2021/12/11 02:34:49;;;;;;;27.60;14.95;;;;;;;7.91;100.00;100260.22;5029237;28;20559;-75
2021/12/11 02:37:35;;;;;;;31.67;16.05;;;;;;;7.85;100.00;100255.47;5029273;28;20175;-76
2021/12/11 02:40:31;;;;;;;28.20;15.85;;;;;;;7.88;100.00;100262.50;5030822;28;20175;-75
2021/12/11 02:43:14;;;;;;;28.83;16.60;;;;;;;7.86;100.00;100241.97;5024396;28;20257;-75
2021/12/11 02:46:02;;;;;;;26.77;16.27;;;;;;;7.86;100.00;100244.50;5029689;28;20198;-75
2021/12/11 02:48:34;;;;;;;31.05;15.23;;;;;;;7.93;100.00;100248.53;5028892;28;20559;-75
2021/12/11 02:51:15;;;;;;;28.95;15.85;;;;;;;7.96;100.00;100236.06;5029013;28;20259;-79
2021/12/11 02:53:46;;;;;;;29.73;16.58;;;;;;;7.91;100.00;100224.53;5029514;28;20259;-76
2021/12/11 02:56:34;;;;;;;29.65;16.15;;;;;;;7.85;100.00;100194.25;5028127;28;20260;-76
2021/12/11 02:59:06;;;;;;;69.82;37.25;;;;;;;7.91;100.00;100204.13;5028631;28;20196;-76
2021/12/11 03:01:43;;;;;;;40.47;22.70;;;;;;;7.81;100.00;100197.25;5028697;28;20607;-76
2021/12/11 03:04:21;;;;;;;33.63;19.55;;;;;;;7.87;100.00;100214.78;5029804;28;20200;-78
2021/12/11 03:06:49;;;;;;;31.23;16.38;;;;;;;7.89;100.00;100215.84;5028673;28;20603;-78
2021/12/11 03:09:23;;;;;;;31.98;16.98;;;;;;;7.83;100.00;100213.63;5030102;28;20289;-77
2021/12/11 03:11:49;;;;;;;27.08;14.68;;;;;;;7.67;100.00;100187.44;5030236;28;20255;-77
2021/12/11 03:14:18;;;;;;;28.35;14.48;;;;;;;7.74;100.00;100194.91;5029149;28;20184;-78
2021/12/11 03:16:45;;;;;;;31.98;15.65;;;;;;;7.87;100.00;100220.78;5029381;28;20180;-78
2021/12/11 03:19:14;;;;;;;30.70;15.27;;;;;;;7.77;100.00;100207.94;5028649;28;20932;-77
2021/12/11 03:21:41;;;;;;;26.33;13.90;;;;;;;7.82;100.00;100237.34;5029119;28;20184;-79
2021/12/11 03:24:08;;;;;;;27.70;14.70;;;;;;;7.72;100.00;100229.53;5029523;28;20187;-79
2021/12/11 03:26:34;;;;;;;29.75;16.15;;;;;;;7.79;100.00;100248.91;5029191;28;20184;-79
2021/12/11 03:29:00;;;;;;;27.00;14.43;;;;;;;7.81;100.00;100244.81;5029852;28;20321;-78
2021/12/11 03:31:26;;;;;;;26.77;14.70;;;;;;;7.82;100.00;100245.00;5029182;28;20184;-78
2021/12/11 03:33:56;;;;;;;28.40;15.30;;;;;;;7.85;100.00;100246.94;5029590;28;20195;-78
2021/12/11 03:36:24;;;;;;;27.02;14.23;;;;;;;7.81;100.00;100243.16;5008855;28;20176;-77
2021/12/11 03:38:54;;;;;;;42.05;24.27;;;;;;;7.58;100.00;100225.69;5028754;28;20670;-76
2021/12/11 03:41:20;;;;;;;40.03;21.52;;;;;;;7.65;100.00;100222.06;5029324;28;20270;-77
2021/12/11 03:43:47;;;;;;;29.48;16.23;;;;;;;7.51;100.00;100197.81;5029556;28;20207;-76
2021/12/11 03:46:13;;;;;;;27.65;14.60;;;;;;;7.55;100.00;100227.06;5029350;28;20188;-77
2021/12/11 03:48:38;;;;;;;30.45;15.25;;;;;;;7.69;100.00;100253.84;5010097;28;20249;-77
2021/12/11 03:51:07;;;;;;;26.73;14.65;;;;;;;7.63;100.00;100257.63;5029538;28;20215;-79
2021/12/11 03:53:33;;;;;;;24.85;13.90;;;;;;;7.61;100.00;100266.78;5026169;28;20574;-77
2021/12/11 03:56:02;;;;;;;26.80;14.07;;;;;;;7.64;100.00;100266.19;5029357;28;20184;-78
2021/12/11 03:58:28;;;;;;;28.77;15.05;;;;;;;7.55;100.00;100247.44;5029371;28;20560;-77
2021/12/11 04:00:56;;;;;;;29.70;14.98;;;;;;;7.62;100.00;100277.88;5028886;28;20253;-77
2021/12/11 04:03:26;;;;;;;22.60;12.95;;;;;;;7.69;100.00;100282.81;5029234;28;20188;-78
2021/12/11 04:05:53;;;;;;;21.05;12.73;;;;;;;7.68;100.00;100295.41;5032453;28;20326;-78
2021/12/11 04:08:23;;;;;;;22.98;12.75;;;;;;;7.63;100.00;100293.34;5033602;28;20176;-78
2021/12/11 04:10:50;;;;;;;17.42;11.32;;;;;;;7.63;100.00;100298.44;5031519;28;20572;-77
2021/12/11 04:13:16;;;;;;;17.52;11.10;;;;;;;7.59;100.00;100290.31;5033369;28;20176;-77
2021/12/11 04:15:45;;;;;;;18.10;10.70;;;;;;;7.61;100.00;100281.19;5033007;28;20176;-79
2021/12/11 04:18:11;;;;;;;15.65;9.40;;;;;;;7.62;100.00;100288.97;5032255;28;20183;-78
2021/12/11 04:20:41;;;;;;;20.10;11.35;;;;;;;7.57;100.00;100291.81;5032709;28;20219;-76
2021/12/11 04:23:11;;;;;;;32.28;17.17;;;;;;;7.46;100.00;100285.69;5015071;28;20172;-76
2021/12/11 04:25:38;;;;;;;17.77;11.25;;;;;;;7.28;100.00;100253.31;5032419;28;20168;-78
2021/12/11 04:28:03;;;;;;;24.98;13.38;;;;;;;7.38;100.00;100284.97;5032751;28;20176;-77
2021/12/11 04:30:29;;;;;;;45.47;20.77;;;;;;;7.33;100.00;100290.38;5032387;28;20261;-78
2021/12/11 04:32:57;;;;;;;15.43;9.65;;;;;;;7.26;100.00;100272.66;5032240;28;20655;-77
2021/12/11 04:35:27;;;;;;;16.80;10.00;;;;;;;7.24;98.59;100282.72;5032641;28;20589;-79
2021/12/11 04:37:53;;;;;;;13.68;8.48;;;;;;;7.20;99.52;100279.72;5031698;28;20172;-78
2021/12/11 04:40:25;;;;;;;14.55;9.88;;;;;;;6.97;99.43;100249.44;5032518;28;20180;-79
2021/12/11 04:43:05;;;;;;;12.68;8.18;;;;;;;7.06;99.29;100276.72;5032424;28;20161;-79
2021/12/11 04:45:38;;;;;;;13.38;8.68;;;;;;;6.99;100.00;100279.41;5032565;28;20164;-77
2021/12/11 04:48:41;;;;;;;16.08;8.25;;;;;;;6.88;100.00;100262.16;5031423;28;20238;-79
2021/12/11 04:51:16;;;;;;;12.32;7.55;;;;;;;6.87;100.00;100268.91;5031512;28;20195;-77
2021/12/11 04:59:35;;;;;;;13.02;8.52;;;;;;;6.74;100.00;100252.28;5030702;28;20587;-77
2021/12/11 05:02:17;;;;;;;14.75;10.55;;;;;;;6.81;100.00;100277.59;5030538;28;20272;-78
2021/12/11 05:09:58;;;;;;;14.27;9.40;;;;;;;6.76;100.00;100258.41;5030850;28;20212;-79
2021/12/11 05:14:51;;;;;;;14.93;9.57;;;;;;;6.71;100.00;100255.41;5030633;28;20227;-79
2021/12/11 05:17:17;;;;;;;14.52;9.35;;;;;;;6.62;100.00;100250.28;5031274;28;20263;-76
2021/12/11 05:19:46;;;;;;;14.05;9.40;;;;;;;6.65;100.00;100244.63;5031926;28;20177;-78
2021/12/11 05:22:12;;;;;;;15.07;9.80;;;;;;;6.67;100.00;100227.84;5032012;28;20183;-79
2021/12/11 05:24:43;;;;;;;15.55;10.27;;;;;;;6.71;100.00;100220.66;5031461;28;20200;-79
2021/12/11 05:27:08;;;;;;;15.32;10.52;;;;;;;6.73;100.00;100215.75;5031602;28;20222;-76
2021/12/11 05:29:35;;;;;;;15.30;9.77;;;;;;;6.77;100.00;100215.28;5031299;28;20203;-76
2021/12/11 05:32:04;;;;;;;13.02;9.23;;;;;;;6.77;100.00;100230.56;5032308;28;20317;-79
2021/12/11 05:34:30;;;;;;;14.00;10.40;;;;;;;6.54;98.97;100205.38;5030431;28;20271;-79
2021/12/11 05:36:55;;;;;;;18.60;11.45;;;;;;;6.85;99.23;100239.88;5031344;28;20266;-77
2021/12/11 05:39:21;;;;;;;19.42;12.18;;;;;;;6.86;99.43;100239.09;5031658;28;20223;-78
2021/12/11 05:41:48;;;;;;;19.40;12.77;;;;;;;6.88;99.10;100244.34;5031276;28;20176;-78
2021/12/11 05:44:14;;;;;;;20.42;11.90;;;;;;;6.91;98.95;100248.06;5030143;28;20675;-78
2021/12/11 05:46:42;;;;;;;22.52;11.13;;;;;;;6.93;98.94;100253.34;5031073;28;20183;-77
2021/12/11 05:49:09;;;;;;;25.83;13.20;;;;;;;6.91;98.91;100252.28;5030421;28;20211;-80
2021/12/11 05:51:38;;;;;;;24.63;13.10;;;;;;;6.93;98.96;100260.97;5011677;28;20179;-78
2021/12/11 05:54:07;;;;;;;22.33;12.63;;;;;;;6.95;98.66;100267.13;5030684;28;20554;-78
2021/12/11 05:56:36;;;;;;;26.15;13.98;;;;;;;6.85;97.16;100250.03;5030377;28;20188;-77
2021/12/11 05:59:05;;;;;;;27.05;14.13;;;;;;;6.83;97.31;100238.81;5031088;28;20196;-77
2021/12/11 06:01:57;;;;;;;23.48;12.82;;;;;;;7.03;96.92;100272.97;5013231;28;20172;-78
2021/12/11 06:04:27;;;;;;;23.20;13.15;;;;;;;7.05;96.76;100269.81;5026050;28;20275;-79
2021/12/11 06:06:54;;;;;;;28.63;14.50;;;;;;;6.86;97.02;100236.56;5030071;28;20219;-77
2021/12/11 06:09:22;;;;;;;29.30;15.13;;;;;;;7.01;97.11;100264.25;5030402;28;20195;-78
2021/12/11 06:11:50;;;;;;;30.35;14.93;;;;;;;6.94;97.33;100275.50;5030835;28;20168;-78
2021/12/11 06:14:17;;;;;;;29.23;13.15;;;;;;;6.92;96.73;100283.00;5031785;28;20207;-77
2021/12/11 06:16:47;;;;;;;20.42;11.45;;;;;;;6.86;97.12;100277.31;5030971;28;20172;-78
2021/12/11 06:19:13;;;;;;;23.52;12.07;;;;;;;6.83;96.87;100269.34;5030229;28;20263;-77
2021/12/11 06:21:39;;;;;;;20.05;11.18;;;;;;;6.96;96.18;100293.50;5032487;28;20180;-78
2021/12/11 06:24:05;;;;;;;18.92;11.35;;;;;;;6.93;96.34;100287.34;5032165;28;20195;-78
2021/12/11 06:26:32;;;;;;;18.92;11.77;;;;;;;6.98;95.22;100295.44;5031908;28;20184;-78
2021/12/11 06:28:58;;;;;;;21.38;12.57;;;;;;;6.97;95.45;100288.53;5031960;28;20717;-78
2021/12/11 06:31:24;;;;;;;20.35;11.20;;;;;;;6.97;95.32;100285.09;5045748;28;20187;-76
2021/12/11 06:33:52;;;;;;;19.52;11.70;;;;;;;7.00;95.98;100285.41;5030449;28;20568;-78
2021/12/11 06:36:20;;;;;;;17.75;11.05;;;;;;;6.99;95.41;100293.81;5029765;28;20635;-77
2021/12/11 06:38:49;;;;;;;14.35;8.52;;;;;;;6.94;95.14;100283.13;5031454;28;20679;-77
2021/12/11 06:41:20;;;;;;;11.98;7.93;;;;;;;7.06;93.80;100296.19;5031810;28;20176;-77
2021/12/11 06:43:45;;;;;;;13.40;8.57;;;;;;;7.02;93.32;100289.00;5029713;28;20765;-78
2021/12/11 06:46:11;;;;;;;12.15;8.52;;;;;;;7.06;95.00;100308.94;5029539;28;20271;-76
2021/12/11 06:48:36;;;;;;;14.88;8.63;;;;;;;7.09;94.32;100304.13;5029413;28;20200;-80
2021/12/11 06:51:04;;;;;;;13.60;9.25;;;;;;;7.03;93.68;100296.78;5029841;28;20271;-79
2021/12/11 06:53:55;;;;;;;13.85;10.32;;;;;;;7.08;92.90;100297.25;5030983;28;20180;-79
2021/12/11 06:56:22;;;;;;;24.23;12.60;;;;;;;7.13;93.23;100312.25;5012176;28;20179;-78
2021/12/11 06:58:51;;;;;;;35.17;17.88;;;;;;;7.20;93.07;100313.75;5029165;28;20218;-81
2021/12/11 07:01:19;;;;;;;30.95;17.83;;;;;;;7.20;92.67;100308.66;5028989;28;20186;-79
2021/12/11 07:03:45;;;;;;;20.02;12.07;;;;;;;7.23;93.36;100308.97;5031014;28;20180;-77
2021/12/11 07:06:12;;;;;;;19.58;11.70;;;;;;;7.07;93.51;100287.78;5031254;28;20790;-78
2021/12/11 07:08:39;;;;;;;18.83;10.82;;;;;;;7.27;93.51;100302.50;5031412;28;20287;-78
2021/12/11 07:11:07;;;;;;;18.48;10.88;;;;;;;7.21;93.12;100300.25;5031699;28;20190;-78
2021/12/11 07:13:33;;;;;;;15.85;9.30;;;;;;;7.32;92.83;100311.47;5031439;28;20455;-78
2021/12/11 07:15:59;;;;;;;14.02;9.43;;;;;;;7.23;92.80;100295.28;5031400;28;20176;-78
2021/12/11 07:18:27;;;;;;;11.23;7.75;;;;;;;7.01;91.50;100259.16;5031189;28;20172;-80
2021/12/11 07:20:54;;;;;;;9.63;7.72;;;;;;;7.32;90.47;100309.84;5013694;28;20180;-78
2021/12/11 07:23:20;;;;;;;10.52;7.68;;;;;;;7.37;90.64;100312.84;5031294;28;20335;-80
2021/12/11 07:25:47;;;;;;;12.73;7.60;;;;;;;7.38;90.41;100301.88;5013572;28;20279;-79
2021/12/11 07:28:13;;;;;;;11.02;7.28;;;;;;;7.45;89.42;100304.31;5031377;28;20168;-77
2021/12/11 07:30:41;;;;;;;10.98;7.10;;;;;;;7.47;90.96;100312.09;5031408;28;20265;-77
2021/12/11 07:33:08;;;;;;;10.80;7.68;;;;;;;7.39;91.83;100309.69;5031466;28;20180;-78
2021/12/11 07:35:36;;;;;;;15.45;10.10;;;;;;;7.19;92.21;100294.09;5031499;28;20211;-78
2021/12/11 07:38:02;;;;;;;16.13;8.50;;;;;;;7.29;92.44;100318.81;5017219;28;20187;-77
2021/12/11 07:40:33;;;;;;;14.65;9.55;;;;;;;7.37;92.16;100336.69;5038190;28;20181;-78
2021/12/11 07:42:59;;;;;;;10.68;7.78;;;;;;;7.34;92.84;100335.47;5020091;28;20186;-78
2021/12/11 07:45:26;;;;;;;12.35;8.15;;;;;;;7.25;92.77;100329.47;5037614;28;20658;-79
2021/12/11 07:47:52;;;;;;;12.35;8.73;;;;;;;7.20;93.21;100321.41;5037611;28;20183;-78
2021/12/11 07:50:19;;;;;;;14.95;9.65;;;;;;;7.34;93.55;100346.56;5037487;28;20200;-78
2021/12/11 07:52:45;;;;;;;79.15;42.90;;;;;;;7.35;93.97;100350.00;5037680;28;20182;-78
2021/12/11 07:55:10;;;;;;;26.20;15.10;;;;;;;7.15;94.52;100320.03;5037411;28;20184;-78
2021/12/11 07:57:37;;;;;;;17.58;11.10;;;;;;;7.42;93.81;100365.19;5037559;28;20207;-77
2021/12/11 08:00:11;;;;;;;12.20;9.18;;;;;;;7.41;93.49;100360.81;5037298;28;20206;-77
2021/12/11 08:02:38;;;;;;;27.95;15.35;;;;;;;7.09;93.29;100302.47;5037582;28;20193;-78
2021/12/11 08:05:05;;;;;;;25.48;13.30;;;;;;;7.51;93.76;100372.84;5019806;28;20646;-80
2021/12/11 08:07:30;;;;;;;23.02;14.25;;;;;;;7.49;93.96;100371.78;5037871;28;20171;-80
2021/12/11 08:09:56;;;;;;;61.20;33.22;;;;;;;7.44;93.54;100360.22;5037811;28;20342;-80
2021/12/11 08:12:22;;;;;;;60.60;34.10;;;;;;;7.35;93.00;100324.53;5037647;28;20176;-80
2021/12/11 08:14:49;;;;;;;39.85;22.00;;;;;;;7.45;93.53;100339.09;5037758;28;20176;-79
2021/12/11 08:17:16;;;;;;;20.92;13.38;;;;;;;7.62;93.72;100378.22;5037310;28;20663;-82
2021/12/11 08:19:41;;;;;;;17.83;11.57;;;;;;;7.48;93.08;100349.59;5037673;28;20176;-81
2021/12/11 08:22:08;;;;;;;17.17;9.68;;;;;;;7.62;93.34;100373.13;5037754;28;20172;-83
2021/12/11 08:24:35;;;;;;;13.10;8.55;;;;;;;7.63;93.09;100368.91;5037404;28;20206;-82
2021/12/11 08:27:11;;;;;;;13.02;8.73;;;;;;;7.66;92.19;100370.88;5037750;28;20199;-82
2021/12/11 08:29:38;;;;;;;14.20;9.25;;;;;;;7.65;92.78;100364.88;5020006;28;20265;-82
2021/12/11 08:32:04;;;;;;;13.25;8.35;;;;;;;7.50;91.84;100337.88;5037343;28;20176;-81
2021/12/11 08:34:31;;;;;;;21.00;15.02;;;;;;;7.53;91.93;100328.88;5037362;28;20187;-80
2021/12/11 08:36:58;;;;;;;34.40;19.67;;;;;;;7.75;92.13;100359.91;5037966;28;20279;-78
2021/12/11 08:39:26;;;;;;;31.17;18.67;;;;;;;7.69;92.55;100348.22;5037293;28;20180;-80
2021/12/11 08:41:53;;;;;;;14.00;10.15;;;;;;;7.79;92.96;100363.69;5037867;28;20176;-80
2021/12/11 08:44:21;;;;;;;16.13;10.45;;;;;;;7.85;93.17;100359.16;5037960;28;20176;-82
2021/12/11 08:46:54;;;;;;;16.92;11.10;;;;;;;7.51;92.94;100279.41;5037443;28;20176;-82
2021/12/11 08:49:25;;;;;;;17.80;11.85;;;;;;;7.77;93.10;100319.25;5035898;28;20214;-83
2021/12/11 08:51:55;;;;;;;20.80;12.85;;;;;;;7.95;92.83;100341.44;5034552;28;20180;-80
2021/12/11 08:54:23;;;;;;;21.08;13.73;;;;;;;8.00;93.59;100336.75;5016259;28;20187;-83
2021/12/11 08:56:49;;;;;;;19.13;13.68;;;;;;;7.78;94.21;100288.78;5034403;28;20180;-82
2021/12/11 08:59:18;;;;;;;21.23;13.20;;;;;;;8.05;93.94;100325.34;5034593;28;20207;-82
2021/12/11 09:01:55;;;;;;;21.83;13.48;;;;;;;7.74;93.64;100267.97;5034746;28;20326;-81
2021/12/11 09:04:29;;;;;;;24.35;13.65;;;;;;;8.07;94.10;100322.19;5034372;28;20180;-81
2021/12/11 09:07:03;;;;;;;20.10;11.93;;;;;;;8.13;93.82;100327.00;5034104;28;20227;-81
2021/12/11 09:09:44;;;;;;;20.77;11.00;;;;;;;8.17;93.77;100326.50;5034468;28;20218;-81
2021/12/11 09:12:17;;;;;;;17.73;11.57;;;;;;;8.21;93.60;100312.38;5035477;28;20206;-82
2021/12/11 09:14:53;;;;;;;19.20;11.32;;;;;;;8.25;93.13;100323.00;5034399;28;20200;-79
2021/12/11 09:17:29;;;;;;;20.13;12.40;;;;;;;8.08;94.05;100270.41;5034080;28;20175;-78
2021/12/11 09:20:03;;;;;;;24.73;15.40;;;;;;;8.29;93.89;100304.69;5033927;28;20229;-80
2021/12/11 09:22:30;;;;;;;41.95;24.00;;;;;;;8.37;93.72;100299.41;5033484;28;20172;-79
2021/12/11 09:25:09;;;;;;;26.42;15.30;;;;;;;8.84;100.00;100285.06;5034116;28;20179;-79
2021/12/11 09:27:50;;;;;;;29.95;15.27;;;;;;;9.40;100.00;100273.94;5033671;28;20175;-80
2021/12/11 09:30:19;;;;;;;25.10;14.43;;;;;;;9.76;100.00;100268.63;5033217;28;20195;-79
2021/12/11 09:32:57;;;;;;;28.25;14.38;;;;;;;10.04;100.00;100264.25;5033275;28;20176;-80
2021/12/11 09:35:30;;;;;;;24.08;14.27;;;;;;;10.29;100.00;100261.28;5015801;28;20219;-78
2021/12/11 09:38:02;;;;;;;23.80;12.73;;;;;;;10.44;100.00;100241.19;5033841;28;20164;-80
2021/12/11 09:40:34;;;;;;;18.15;12.07;;;;;;;10.69;99.57;100249.28;5033269;28;20635;-80
2021/12/11 09:43:03;;;;;;;19.90;11.40;;;;;;;10.58;95.20;100189.44;5033277;28;20251;-81
2021/12/11 09:45:37;;;;;;;19.92;12.20;;;;;;;11.07;92.04;100242.19;5033664;28;20169;-82
2021/12/11 09:48:07;;;;;;;19.73;12.10;;;;;;;11.18;88.80;100243.06;5015760;28;20180;-80
2021/12/11 09:50:45;;;;;;;20.73;10.30;;;;;;;11.25;87.46;100222.28;5033776;28;20211;-79
2021/12/11 09:53:14;;;;;;;16.67;10.38;;;;;;;11.48;85.69;100239.50;5033311;28;20639;-81
2021/12/11 09:55:40;;;;;;;19.88;11.27;;;;;;;11.54;83.29;100240.00;5032947;28;20729;-79
2021/12/11 09:58:11;;;;;;;36.85;22.50;;;;;;;11.47;80.38;100240.31;5032616;28;20267;-80
2021/12/11 10:00:40;;;;;;;34.25;21.38;;;;;;;11.36;79.60;100238.53;5032185;28;20652;-79
2021/12/11 10:03:08;;;;;;;21.02;14.02;;;;;;;10.84;79.78;100173.63;5032548;28;20199;-79
2021/12/11 10:05:46;;;;;;;19.92;12.50;;;;;;;11.14;80.64;100235.88;5032674;28;20220;-78
2021/12/11 10:08:39;;;;;;;15.32;9.75;;;;;;;11.03;80.84;100238.47;5032737;28;20175;-77
2021/12/11 10:11:10;;;;;;;17.65;10.02;;;;;;;10.93;81.62;100224.75;5032392;28;20260;-81
2021/12/11 10:13:44;;;;;;;20.95;11.85;;;;;;;10.83;82.04;100228.25;5032446;28;20168;-79
2021/12/11 10:16:10;;;;;;;21.40;12.13;;;;;;;10.77;82.59;100217.47;5032400;28;20164;-78
2021/12/11 10:18:36;;;;;;;18.75;12.35;;;;;;;10.65;82.96;100219.91;5032282;28;20647;-78
2021/12/11 10:21:06;;;;;;;18.77;11.60;;;;;;;10.57;83.90;100220.97;5032420;28;20172;-79
2021/12/11 10:23:35;;;;;;;20.10;11.57;;;;;;;10.45;84.13;100207.13;5032184;28;20670;-80
2021/12/11 10:26:10;;;;;;;20.42;11.32;;;;;;;10.34;84.83;100204.56;5032435;28;20184;-81
2021/12/11 10:28:37;;;;;;;21.27;14.23;;;;;;;10.43;85.94;100208.66;5032310;28;20190;-78
2021/12/11 10:31:08;;;;;;;25.80;13.95;;;;;;;10.42;86.86;100212.00;5032329;28;20176;-77
2021/12/11 10:33:34;;;;;;;20.83;12.25;;;;;;;10.37;87.68;100202.25;5032067;28;20179;-81
2021/12/11 10:36:05;;;;;;;20.30;11.52;;;;;;;10.30;87.85;100184.56;5032038;28;20636;-82
2021/12/11 10:38:31;;;;;;;20.65;12.35;;;;;;;10.42;88.08;100202.63;5032625;28;20176;-82
2021/12/11 10:40:59;;;;;;;16.77;10.88;;;;;;;10.44;88.59;100195.09;5032262;28;20323;-81
2021/12/11 10:43:35;;;;;;;16.38;9.10;;;;;;;10.44;88.12;100196.00;5032036;28;20654;-78
2021/12/11 10:46:05;;;;;;;13.15;8.02;;;;;;;10.32;88.43;100177.03;5032369;28;20265;-79
2021/12/11 10:48:34;;;;;;;14.30;7.65;;;;;;;9.89;88.85;100084.69;5032353;28;20183;-78
2021/12/11 10:51:03;;;;;;;14.70;6.60;;;;;;;10.44;88.80;100187.41;5031995;28;20176;-80
2021/12/11 10:53:30;;;;;;;16.75;6.18;;;;;;;10.54;89.11;100193.41;5032024;28;20563;-79
2021/12/11 10:56:00;;;;;;;15.38;5.85;;;;;;;10.46;88.28;100173.94;5032013;28;20180;-79
2021/12/11 10:58:30;;;;;;;16.25;6.72;;;;;;;10.54;87.93;100178.03;5014506;28;20188;-81
2021/12/11 11:01:01;;;;;;;13.20;7.68;;;;;;;10.60;88.05;100193.91;5031893;28;20176;-80
2021/12/11 11:03:32;;;;;;;10.23;4.97;;;;;;;10.60;88.20;100183.69;5031750;28;20168;-81
2021/12/11 11:05:58;;;;;;;7.60;5.22;;;;;;;10.56;87.64;100160.22;5014649;28;20234;-80
2021/12/11 11:08:23;;;;;;;10.93;5.88;;;;;;;10.75;87.84;100167.78;5031700;28;20259;-80
2021/12/11 11:10:54;;;;;;;8.88;4.90;;;;;;;10.60;87.90;100164.84;5031500;28;20242;-79
2021/12/11 11:13:22;;;;;;;6.53;4.30;;;;;;;10.72;88.10;100157.28;5030920;28;20172;-80
2021/12/11 11:15:48;;;;;;;9.73;4.32;;;;;;;10.78;87.72;100156.13;5031332;28;20176;-79
2021/12/11 11:18:18;;;;;;;10.20;4.80;;;;;;;10.66;88.12;100134.63;5031331;28;20184;-80
2021/12/11 11:20:54;;;;;;;10.13;5.22;;;;;;;10.88;88.33;100168.00;5031004;28;20677;-79
2021/12/11 11:23:20;;;;;;;7.28;4.53;;;;;;;10.83;87.82;100141.09;5013765;28;20192;-81
2021/12/11 11:25:49;;;;;;;9.50;4.55;;;;;;;10.93;87.61;100164.13;5031638;28;20204;-80
2021/12/11 11:28:18;;;;;;;7.43;5.03;;;;;;;10.97;87.46;100160.19;5031419;28;20262;-79
2021/12/11 11:31:07;;;;;;;8.88;5.57;;;;;;;10.86;87.35;100124.31;5031137;28;20210;-78
2021/12/11 11:33:33;;;;;;;6.07;4.03;;;;;;;10.91;87.42;100129.81;5030808;28;20626;-81
2021/12/11 11:36:02;;;;;;;8.77;4.22;;;;;;;11.07;87.39;100147.31;5031564;28;20282;-80
2021/12/11 11:38:33;;;;;;;7.07;4.07;;;;;;;10.99;87.35;100143.22;5031331;28;20176;-80
2021/12/11 11:41:05;;;;;;;8.02;4.35;;;;;;;10.95;87.57;100125.81;5031119;28;20164;-79
2021/12/11 11:43:31;;;;;;;37.95;19.80;;;;;;;11.08;87.21;100144.88;5031209;28;20164;-81
2021/12/11 11:45:57;;;;;;;10.77;5.38;;;;;;;11.17;87.73;100143.81;5031196;28;20669;-79